sensor_id;sensor_type;location;lat;lon;timestamp;temperature;humidity
2579;DHT22;1299;48.282;14.398;2024-03-02T00:00:16;9.60;99.90
2579;DHT22;1299;48.282;14.398;2024-03-02T00:02:47;9.50;99.90
2579;DHT22;1299;48.282;14.398;2024-03-02T00:05:15;9.60;99.90
2579;DHT22;1299;48.282;14.398;2024-03-02T00:07:45;9.60;99.90
2579;DHT22;1299;48.282;14.398;2024-03-02T00:10:16;9.50;99.90
2579;DHT22;1299;48.282;14.398;2024-03-02T00:12:47;9.40;99.90
2579;DHT22;1299;48.282;14.398;2024-03-02T00:15:40;9.40;99.90
2579;DHT22;1299;48.282;14.398;2024-03-02T00:18:10;9.10;99.90
2579;DHT22;1299;48.282;14.398;2024-03-02T00:20:37;9.30;99.90
2579;DHT22;1299;48.282;14.398;2024-03-02T00:23:07;9.40;99.90
2579;DHT22;1299;48.282;14.398;2024-03-02T00:25:39;9.40;99.90
2579;DHT22;1299;48.282;14.398;2024-03-02T00:28:13;9.40;99.90
2579;DHT22;1299;48.282;14.398;2024-03-02T00:30:52;9.40;99.90
2579;DHT22;1299;48.282;14.398;2024-03-02T00:33:20;9.50;99.90
2579;DHT22;1299;48.282;14.398;2024-03-02T00:35:47;9.50;99.90
2579;DHT22;1299;48.282;14.398;2024-03-02T00:38:16;9.50;99.90
2579;DHT22;1299;48.282;14.398;2024-03-02T00:40:44;9.40;99.90
2579;DHT22;1299;48.282;14.398;2024-03-02T00:46:19;9.40;99.90
2579;DHT22;1299;48.282;14.398;2024-03-02T00:48:54;9.40;99.90
2579;DHT22;1299;48.282;14.398;2024-03-02T00:51:21;9.40;99.90
2579;DHT22;1299;48.282;14.398;2024-03-02T00:53:52;9.50;99.90
2579;DHT22;1299;48.282;14.398;2024-03-02T00:56:22;9.50;99.90
2579;DHT22;1299;48.282;14.398;2024-03-02T00:58:49;9.50;99.90
2579;DHT22;1299;48.282;14.398;2024-03-02T01:01:17;9.50;99.90
2579;DHT22;1299;48.282;14.398;2024-03-02T01:03:44;9.50;99.90
2579;DHT22;1299;48.282;14.398;2024-03-02T01:06:11;9.50;99.90
2579;DHT22;1299;48.282;14.398;2024-03-02T01:08:38;9.50;99.90
2579;DHT22;1299;48.282;14.398;2024-03-02T01:11:07;9.40;99.90
2579;DHT22;1299;48.282;14.398;2024-03-02T01:13:34;9.40;99.90
2579;DHT22;1299;48.282;14.398;2024-03-02T01:16:02;9.50;99.90
2579;DHT22;1299;48.282;14.398;2024-03-02T01:18:29;9.50;99.90
2579;DHT22;1299;48.282;14.398;2024-03-02T01:20:57;9.50;99.90
2579;DHT22;1299;48.282;14.398;2024-03-02T01:23:24;9.30;99.90
2579;DHT22;1299;48.282;14.398;2024-03-02T01:25:52;9.10;99.90
2579;DHT22;1299;48.282;14.398;2024-03-02T01:28:20;9.30;99.90
2579;DHT22;1299;48.282;14.398;2024-03-02T01:30:47;9.40;99.90
2579;DHT22;1299;48.282;14.398;2024-03-02T01:33:14;9.40;99.90
2579;DHT22;1299;48.282;14.398;2024-03-02T01:35:42;9.40;99.90
2579;DHT22;1299;48.282;14.398;2024-03-02T01:38:09;9.20;99.90
2579;DHT22;1299;48.282;14.398;2024-03-02T01:40:37;9.00;99.90
2579;DHT22;1299;48.282;14.398;2024-03-02T01:43:04;9.20;99.90
2579;DHT22;1299;48.282;14.398;2024-03-02T01:45:33;9.30;99.90
2579;DHT22;1299;48.282;14.398;2024-03-02T01:48:01;9.40;99.90
2579;DHT22;1299;48.282;14.398;2024-03-02T01:50:29;9.30;99.90
2579;DHT22;1299;48.282;14.398;2024-03-02T01:52:57;9.40;99.90
2579;DHT22;1299;48.282;14.398;2024-03-02T01:55:24;9.40;99.90
2579;DHT22;1299;48.282;14.398;2024-03-02T01:57:51;9.40;99.90
2579;DHT22;1299;48.282;14.398;2024-03-02T02:00:20;9.40;99.90
2579;DHT22;1299;48.282;14.398;2024-03-02T02:02:48;9.40;99.90
2579;DHT22;1299;48.282;14.398;2024-03-02T02:05:17;9.40;99.90
2579;DHT22;1299;48.282;14.398;2024-03-02T02:07:44;9.40;99.90
2579;DHT22;1299;48.282;14.398;2024-03-02T02:10:11;9.30;99.90
2579;DHT22;1299;48.282;14.398;2024-03-02T02:12:38;9.40;99.90
2579;DHT22;1299;48.282;14.398;2024-03-02T02:15:26;9.40;99.90
2579;DHT22;1299;48.282;14.398;2024-03-02T02:17:56;9.40;99.90
2579;DHT22;1299;48.282;14.398;2024-03-02T02:20:23;9.30;99.90
2579;DHT22;1299;48.282;14.398;2024-03-02T02:22:58;9.40;99.90
2579;DHT22;1299;48.282;14.398;2024-03-02T02:25:25;9.40;99.90
2579;DHT22;1299;48.282;14.398;2024-03-02T02:27:53;9.30;99.90
2579;DHT22;1299;48.282;14.398;2024-03-02T02:30:21;9.30;99.90
2579;DHT22;1299;48.282;14.398;2024-03-02T02:32:48;9.30;99.90
2579;DHT22;1299;48.282;14.398;2024-03-02T02:35:16;9.30;99.90
2579;DHT22;1299;48.282;14.398;2024-03-02T02:37:43;9.30;99.90
2579;DHT22;1299;48.282;14.398;2024-03-02T02:40:13;9.30;99.90
2579;DHT22;1299;48.282;14.398;2024-03-02T02:42:40;9.30;99.90
2579;DHT22;1299;48.282;14.398;2024-03-02T02:45:07;9.30;99.90
2579;DHT22;1299;48.282;14.398;2024-03-02T02:47:34;9.30;99.90
2579;DHT22;1299;48.282;14.398;2024-03-02T02:50:02;9.40;99.90
2579;DHT22;1299;48.282;14.398;2024-03-02T02:52:33;9.40;99.90
2579;DHT22;1299;48.282;14.398;2024-03-02T02:55:03;9.40;99.90
2579;DHT22;1299;48.282;14.398;2024-03-02T02:57:31;9.30;99.90
2579;DHT22;1299;48.282;14.398;2024-03-02T03:00:02;9.30;99.90
2579;DHT22;1299;48.282;14.398;2024-03-02T03:02:36;9.30;99.90
2579;DHT22;1299;48.282;14.398;2024-03-02T03:05:04;9.30;99.90
2579;DHT22;1299;48.282;14.398;2024-03-02T03:07:31;9.20;99.90
2579;DHT22;1299;48.282;14.398;2024-03-02T03:09:58;9.20;99.90
2579;DHT22;1299;48.282;14.398;2024-03-02T03:12:26;9.30;99.90
2579;DHT22;1299;48.282;14.398;2024-03-02T03:14:54;9.20;99.90
2579;DHT22;1299;48.282;14.398;2024-03-02T03:17:22;9.10;99.90
2579;DHT22;1299;48.282;14.398;2024-03-02T03:19:48;9.10;99.90
2579;DHT22;1299;48.282;14.398;2024-03-02T03:22:16;8.90;99.90
2579;DHT22;1299;48.282;14.398;2024-03-02T03:24:43;9.00;99.90
2579;DHT22;1299;48.282;14.398;2024-03-02T03:27:10;8.90;99.90
2579;DHT22;1299;48.282;14.398;2024-03-02T03:29:37;8.70;99.90
2579;DHT22;1299;48.282;14.398;2024-03-02T03:32:06;8.70;99.90
2579;DHT22;1299;48.282;14.398;2024-03-02T03:34:34;8.90;99.90
2579;DHT22;1299;48.282;14.398;2024-03-02T03:37:01;9.00;99.90
2579;DHT22;1299;48.282;14.398;2024-03-02T03:39:29;9.10;99.90
2579;DHT22;1299;48.282;14.398;2024-03-02T03:41:56;9.10;99.90
2579;DHT22;1299;48.282;14.398;2024-03-02T03:44:23;9.10;99.90
2579;DHT22;1299;48.282;14.398;2024-03-02T03:46:50;9.20;99.90
2579;DHT22;1299;48.282;14.398;2024-03-02T03:49:18;9.10;99.90
2579;DHT22;1299;48.282;14.398;2024-03-02T03:51:45;9.10;99.90
2579;DHT22;1299;48.282;14.398;2024-03-02T03:54:12;9.10;99.90
2579;DHT22;1299;48.282;14.398;2024-03-02T03:56:39;9.10;99.90
2579;DHT22;1299;48.282;14.398;2024-03-02T03:59:06;9.10;99.90
2579;DHT22;1299;48.282;14.398;2024-03-02T04:01:33;9.00;99.90
2579;DHT22;1299;48.282;14.398;2024-03-02T04:04:00;9.00;99.90
2579;DHT22;1299;48.282;14.398;2024-03-02T04:06:30;9.00;99.90
2579;DHT22;1299;48.282;14.398;2024-03-02T04:08:58;9.00;99.90
2579;DHT22;1299;48.282;14.398;2024-03-02T04:11:25;9.00;99.90
2579;DHT22;1299;48.282;14.398;2024-03-02T04:13:52;8.90;99.90
2579;DHT22;1299;48.282;14.398;2024-03-02T04:16:19;8.90;99.90
2579;DHT22;1299;48.282;14.398;2024-03-02T04:18:46;8.90;99.90
2579;DHT22;1299;48.282;14.398;2024-03-02T04:21:13;8.90;99.90
2579;DHT22;1299;48.282;14.398;2024-03-02T04:23:41;9.00;99.90
2579;DHT22;1299;48.282;14.398;2024-03-02T04:26:08;8.90;99.90
2579;DHT22;1299;48.282;14.398;2024-03-02T04:28:35;9.00;99.90
2579;DHT22;1299;48.282;14.398;2024-03-02T04:31:03;9.00;99.90
2579;DHT22;1299;48.282;14.398;2024-03-02T04:33:30;8.90;99.90
2579;DHT22;1299;48.282;14.398;2024-03-02T04:35:57;9.00;99.90
2579;DHT22;1299;48.282;14.398;2024-03-02T04:38:24;9.00;99.90
2579;DHT22;1299;48.282;14.398;2024-03-02T04:40:52;9.10;99.90
2579;DHT22;1299;48.282;14.398;2024-03-02T04:43:19;9.00;99.90
2579;DHT22;1299;48.282;14.398;2024-03-02T04:45:46;9.00;99.90
2579;DHT22;1299;48.282;14.398;2024-03-02T04:48:13;9.00;99.90
2579;DHT22;1299;48.282;14.398;2024-03-02T04:50:40;8.80;99.90
2579;DHT22;1299;48.282;14.398;2024-03-02T04:53:07;8.80;99.90
2579;DHT22;1299;48.282;14.398;2024-03-02T04:55:33;8.90;99.90
2579;DHT22;1299;48.282;14.398;2024-03-02T04:58:31;8.90;99.90
2579;DHT22;1299;48.282;14.398;2024-03-02T05:00:58;8.80;99.90
2579;DHT22;1299;48.282;14.398;2024-03-02T05:03:25;8.90;99.90
2579;DHT22;1299;48.282;14.398;2024-03-02T05:05:52;8.90;99.90
2579;DHT22;1299;48.282;14.398;2024-03-02T05:08:19;8.90;99.90
2579;DHT22;1299;48.282;14.398;2024-03-02T05:10:46;8.90;99.90
2579;DHT22;1299;48.282;14.398;2024-03-02T05:13:13;8.80;99.90
2579;DHT22;1299;48.282;14.398;2024-03-02T05:15:40;8.90;99.90
2579;DHT22;1299;48.282;14.398;2024-03-02T05:18:09;8.90;99.90
2579;DHT22;1299;48.282;14.398;2024-03-02T05:20:35;9.00;99.90
2579;DHT22;1299;48.282;14.398;2024-03-02T05:23:03;9.00;99.90
2579;DHT22;1299;48.282;14.398;2024-03-02T05:25:30;9.00;99.90
2579;DHT22;1299;48.282;14.398;2024-03-02T05:27:57;9.10;99.90
2579;DHT22;1299;48.282;14.398;2024-03-02T05:30:24;9.00;99.90
2579;DHT22;1299;48.282;14.398;2024-03-02T05:32:53;9.10;99.90
2579;DHT22;1299;48.282;14.398;2024-03-02T05:35:20;9.00;99.90
2579;DHT22;1299;48.282;14.398;2024-03-02T05:37:47;9.00;99.90
2579;DHT22;1299;48.282;14.398;2024-03-02T05:40:14;8.90;99.90
2579;DHT22;1299;48.282;14.398;2024-03-02T05:42:42;8.90;99.90
2579;DHT22;1299;48.282;14.398;2024-03-02T05:45:09;8.90;99.90
2579;DHT22;1299;48.282;14.398;2024-03-02T05:47:36;8.90;99.90
2579;DHT22;1299;48.282;14.398;2024-03-02T05:50:07;8.80;99.90
2579;DHT22;1299;48.282;14.398;2024-03-02T05:52:34;8.70;99.90
2579;DHT22;1299;48.282;14.398;2024-03-02T05:55:01;8.80;99.90
2579;DHT22;1299;48.282;14.398;2024-03-02T05:57:28;8.80;99.90
2579;DHT22;1299;48.282;14.398;2024-03-02T06:00:09;8.80;99.90
2579;DHT22;1299;48.282;14.398;2024-03-02T06:02:39;8.70;99.90
2579;DHT22;1299;48.282;14.398;2024-03-02T06:05:08;8.70;99.90
2579;DHT22;1299;48.282;14.398;2024-03-02T06:07:35;8.60;99.90
2579;DHT22;1299;48.282;14.398;2024-03-02T06:10:02;8.70;99.90
2579;DHT22;1299;48.282;14.398;2024-03-02T06:12:31;8.70;99.90
2579;DHT22;1299;48.282;14.398;2024-03-02T06:14:58;8.70;99.90
2579;DHT22;1299;48.282;14.398;2024-03-02T06:17:25;8.70;99.90
2579;DHT22;1299;48.282;14.398;2024-03-02T06:19:52;8.70;99.90
2579;DHT22;1299;48.282;14.398;2024-03-02T06:22:20;8.70;99.90
2579;DHT22;1299;48.282;14.398;2024-03-02T06:24:48;8.70;99.90
2579;DHT22;1299;48.282;14.398;2024-03-02T06:27:15;8.70;99.90
2579;DHT22;1299;48.282;14.398;2024-03-02T06:29:42;8.70;99.90
2579;DHT22;1299;48.282;14.398;2024-03-02T06:32:09;8.70;99.90
2579;DHT22;1299;48.282;14.398;2024-03-02T06:34:36;8.60;99.90
2579;DHT22;1299;48.282;14.398;2024-03-02T06:37:04;8.70;99.90
2579;DHT22;1299;48.282;14.398;2024-03-02T06:39:32;8.80;99.90
2579;DHT22;1299;48.282;14.398;2024-03-02T06:41:59;8.80;99.90
2579;DHT22;1299;48.282;14.398;2024-03-02T06:44:27;8.80;99.90
2579;DHT22;1299;48.282;14.398;2024-03-02T06:46:54;8.90;99.90
2579;DHT22;1299;48.282;14.398;2024-03-02T06:49:21;8.90;99.90
2579;DHT22;1299;48.282;14.398;2024-03-02T06:51:48;8.90;99.90
2579;DHT22;1299;48.282;14.398;2024-03-02T06:54:15;8.90;99.90
2579;DHT22;1299;48.282;14.398;2024-03-02T06:56:43;8.90;99.90
2579;DHT22;1299;48.282;14.398;2024-03-02T06:59:10;9.00;99.90
2579;DHT22;1299;48.282;14.398;2024-03-02T07:01:37;9.10;99.90
2579;DHT22;1299;48.282;14.398;2024-03-02T07:04:04;9.00;99.90
2579;DHT22;1299;48.282;14.398;2024-03-02T07:06:32;9.00;99.90
2579;DHT22;1299;48.282;14.398;2024-03-02T07:08:59;9.10;99.90
2579;DHT22;1299;48.282;14.398;2024-03-02T07:11:26;9.10;99.90
2579;DHT22;1299;48.282;14.398;2024-03-02T07:13:54;9.20;99.90
2579;DHT22;1299;48.282;14.398;2024-03-02T07:16:21;9.30;99.90
2579;DHT22;1299;48.282;14.398;2024-03-02T07:18:54;9.30;99.90
2579;DHT22;1299;48.282;14.398;2024-03-02T07:21:22;9.30;99.90
2579;DHT22;1299;48.282;14.398;2024-03-02T07:23:50;9.40;99.90
2579;DHT22;1299;48.282;14.398;2024-03-02T07:26:17;9.40;99.90
2579;DHT22;1299;48.282;14.398;2024-03-02T07:28:45;9.20;99.90
2579;DHT22;1299;48.282;14.398;2024-03-02T07:31:15;9.20;99.90
2579;DHT22;1299;48.282;14.398;2024-03-02T07:33:44;9.30;99.90
2579;DHT22;1299;48.282;14.398;2024-03-02T07:36:11;9.20;99.90
2579;DHT22;1299;48.282;14.398;2024-03-02T07:38:38;9.30;99.90
2579;DHT22;1299;48.282;14.398;2024-03-02T07:41:06;9.40;99.90
2579;DHT22;1299;48.282;14.398;2024-03-02T07:43:34;9.40;99.90
2579;DHT22;1299;48.282;14.398;2024-03-02T07:46:01;9.60;99.90
2579;DHT22;1299;48.282;14.398;2024-03-02T07:48:30;9.50;99.90
2579;DHT22;1299;48.282;14.398;2024-03-02T07:50:57;9.70;99.90
2579;DHT22;1299;48.282;14.398;2024-03-02T07:53:24;9.60;99.90
2579;DHT22;1299;48.282;14.398;2024-03-02T07:55:51;9.50;99.90
2579;DHT22;1299;48.282;14.398;2024-03-02T07:58:18;9.60;99.90
2579;DHT22;1299;48.282;14.398;2024-03-02T08:00:45;9.80;99.90
2579;DHT22;1299;48.282;14.398;2024-03-02T08:03:13;9.90;99.90
2579;DHT22;1299;48.282;14.398;2024-03-02T08:05:42;9.70;99.90
2579;DHT22;1299;48.282;14.398;2024-03-02T08:08:09;9.60;99.90
2579;DHT22;1299;48.282;14.398;2024-03-02T08:10:37;9.50;99.90
2579;DHT22;1299;48.282;14.398;2024-03-02T08:13:04;9.70;99.90
2579;DHT22;1299;48.282;14.398;2024-03-02T08:15:31;9.60;99.90
2579;DHT22;1299;48.282;14.398;2024-03-02T08:17:58;9.90;99.90
2579;DHT22;1299;48.282;14.398;2024-03-02T08:20:25;9.90;99.90
2579;DHT22;1299;48.282;14.398;2024-03-02T08:22:54;9.90;99.90
2579;DHT22;1299;48.282;14.398;2024-03-02T08:25:21;10.00;99.90
2579;DHT22;1299;48.282;14.398;2024-03-02T08:27:49;9.90;99.90
2579;DHT22;1299;48.282;14.398;2024-03-02T08:30:16;10.00;99.90
2579;DHT22;1299;48.282;14.398;2024-03-02T08:32:43;10.10;99.90
2579;DHT22;1299;48.282;14.398;2024-03-02T08:35:13;10.20;99.90
2579;DHT22;1299;48.282;14.398;2024-03-02T08:37:40;10.20;99.90
2579;DHT22;1299;48.282;14.398;2024-03-02T08:40:10;10.20;99.90
2579;DHT22;1299;48.282;14.398;2024-03-02T08:42:38;9.90;99.90
2579;DHT22;1299;48.282;14.398;2024-03-02T08:45:06;9.60;99.90
2579;DHT22;1299;48.282;14.398;2024-03-02T08:47:33;9.30;99.90
2579;DHT22;1299;48.282;14.398;2024-03-02T08:50:00;9.20;99.90
2579;DHT22;1299;48.282;14.398;2024-03-02T08:52:29;9.20;99.90
2579;DHT22;1299;48.282;14.398;2024-03-02T08:54:56;9.30;99.90
2579;DHT22;1299;48.282;14.398;2024-03-02T08:57:24;9.30;99.90
2579;DHT22;1299;48.282;14.398;2024-03-02T08:59:51;9.40;99.90
2579;DHT22;1299;48.282;14.398;2024-03-02T09:02:18;9.50;99.90
2579;DHT22;1299;48.282;14.398;2024-03-02T09:04:46;9.70;99.90
2579;DHT22;1299;48.282;14.398;2024-03-02T09:07:13;9.70;99.90
2579;DHT22;1299;48.282;14.398;2024-03-02T09:09:40;9.80;99.90
2579;DHT22;1299;48.282;14.398;2024-03-02T09:12:07;9.70;99.90
2579;DHT22;1299;48.282;14.398;2024-03-02T09:14:36;9.90;99.90
2579;DHT22;1299;48.282;14.398;2024-03-02T09:17:03;10.00;99.90
2579;DHT22;1299;48.282;14.398;2024-03-02T09:19:31;10.00;99.90
2579;DHT22;1299;48.282;14.398;2024-03-02T09:21:58;10.00;99.90
2579;DHT22;1299;48.282;14.398;2024-03-02T09:24:25;9.90;99.90
2579;DHT22;1299;48.282;14.398;2024-03-02T09:26:52;9.80;99.90
2579;DHT22;1299;48.282;14.398;2024-03-02T09:29:19;9.90;99.90
2579;DHT22;1299;48.282;14.398;2024-03-02T09:31:47;10.00;99.90
2579;DHT22;1299;48.282;14.398;2024-03-02T09:34:15;10.00;99.90
2579;DHT22;1299;48.282;14.398;2024-03-02T09:36:42;10.10;99.90
2579;DHT22;1299;48.282;14.398;2024-03-02T09:39:09;10.20;99.90
2579;DHT22;1299;48.282;14.398;2024-03-02T09:41:37;10.20;99.90
2579;DHT22;1299;48.282;14.398;2024-03-02T09:44:04;10.10;99.90
2579;DHT22;1299;48.282;14.398;2024-03-02T09:46:31;10.40;99.90
2579;DHT22;1299;48.282;14.398;2024-03-02T09:49:00;10.20;99.90
2579;DHT22;1299;48.282;14.398;2024-03-02T09:51:27;9.80;99.90
2579;DHT22;1299;48.282;14.398;2024-03-02T09:53:55;9.40;99.90
2579;DHT22;1299;48.282;14.398;2024-03-02T09:56:22;9.50;99.90
2579;DHT22;1299;48.282;14.398;2024-03-02T09:58:49;9.50;99.90
2579;DHT22;1299;48.282;14.398;2024-03-02T10:01:17;10.00;99.90
2579;DHT22;1299;48.282;14.398;2024-03-02T10:03:45;10.10;99.90
2579;DHT22;1299;48.282;14.398;2024-03-02T10:06:21;10.00;99.90
2579;DHT22;1299;48.282;14.398;2024-03-02T10:08:48;9.90;99.90
2579;DHT22;1299;48.282;14.398;2024-03-02T10:11:29;10.10;99.90
2579;DHT22;1299;48.282;14.398;2024-03-02T10:14:06;10.10;99.90
2579;DHT22;1299;48.282;14.398;2024-03-02T10:16:35;10.00;99.90
2579;DHT22;1299;48.282;14.398;2024-03-02T10:19:16;10.00;99.90
2579;DHT22;1299;48.282;14.398;2024-03-02T10:21:46;10.10;99.90
2579;DHT22;1299;48.282;14.398;2024-03-02T10:24:13;10.00;99.90
2579;DHT22;1299;48.282;14.398;2024-03-02T10:26:40;9.90;99.90
2579;DHT22;1299;48.282;14.398;2024-03-02T10:29:08;10.10;99.90
2579;DHT22;1299;48.282;14.398;2024-03-02T10:31:37;10.20;99.90
2579;DHT22;1299;48.282;14.398;2024-03-02T10:34:04;10.30;99.90
2579;DHT22;1299;48.282;14.398;2024-03-02T10:36:32;9.80;99.90
2579;DHT22;1299;48.282;14.398;2024-03-02T10:39:03;10.10;99.90
2579;DHT22;1299;48.282;14.398;2024-03-02T10:41:33;10.10;99.90
2579;DHT22;1299;48.282;14.398;2024-03-02T10:44:02;10.10;99.90
2579;DHT22;1299;48.282;14.398;2024-03-02T10:46:30;10.20;99.90
2579;DHT22;1299;48.282;14.398;2024-03-02T10:48:58;10.40;99.90
2579;DHT22;1299;48.282;14.398;2024-03-02T10:51:26;10.50;99.90
2579;DHT22;1299;48.282;14.398;2024-03-02T10:53:54;10.50;99.90
2579;DHT22;1299;48.282;14.398;2024-03-02T10:56:29;10.30;99.90
2579;DHT22;1299;48.282;14.398;2024-03-02T10:59:02;10.10;99.90
2579;DHT22;1299;48.282;14.398;2024-03-02T11:01:32;10.30;99.90
2579;DHT22;1299;48.282;14.398;2024-03-02T11:03:59;10.00;99.90
2579;DHT22;1299;48.282;14.398;2024-03-02T11:06:29;9.90;99.90
2579;DHT22;1299;48.282;14.398;2024-03-02T11:09:00;9.90;99.90
2579;DHT22;1299;48.282;14.398;2024-03-02T11:11:36;10.10;99.90
2579;DHT22;1299;48.282;14.398;2024-03-02T11:14:06;10.30;99.90
2579;DHT22;1299;48.282;14.398;2024-03-02T11:16:37;10.20;99.90
2579;DHT22;1299;48.282;14.398;2024-03-02T11:19:05;10.30;99.90
2579;DHT22;1299;48.282;14.398;2024-03-02T11:21:34;10.20;99.90
2579;DHT22;1299;48.282;14.398;2024-03-02T11:27:06;10.50;99.90
2579;DHT22;1299;48.282;14.398;2024-03-02T11:29:46;10.60;99.90
2579;DHT22;1299;48.282;14.398;2024-03-02T11:32:16;10.00;99.90
2579;DHT22;1299;48.282;14.398;2024-03-02T11:34:45;10.30;99.90
2579;DHT22;1299;48.282;14.398;2024-03-02T11:37:13;10.70;99.90
2579;DHT22;1299;48.282;14.398;2024-03-02T11:39:43;11.00;99.90
2579;DHT22;1299;48.282;14.398;2024-03-02T11:42:12;11.10;99.90
2579;DHT22;1299;48.282;14.398;2024-03-02T11:44:42;10.90;99.90
2579;DHT22;1299;48.282;14.398;2024-03-02T11:47:11;11.10;99.90
2579;DHT22;1299;48.282;14.398;2024-03-02T11:49:42;10.50;99.90
2579;DHT22;1299;48.282;14.398;2024-03-02T11:52:11;10.60;99.90
2579;DHT22;1299;48.282;14.398;2024-03-02T11:54:40;10.50;99.90
2579;DHT22;1299;48.282;14.398;2024-03-02T11:57:14;10.70;99.90
2579;DHT22;1299;48.282;14.398;2024-03-02T11:59:42;10.60;99.90
2579;DHT22;1299;48.282;14.398;2024-03-02T12:02:15;10.20;99.90
2579;DHT22;1299;48.282;14.398;2024-03-02T12:04:43;10.50;99.90
2579;DHT22;1299;48.282;14.398;2024-03-02T12:07:11;10.40;99.90
2579;DHT22;1299;48.282;14.398;2024-03-02T12:09:38;10.40;99.90
2579;DHT22;1299;48.282;14.398;2024-03-02T12:12:06;10.50;99.90
2579;DHT22;1299;48.282;14.398;2024-03-02T12:14:36;10.60;99.90
2579;DHT22;1299;48.282;14.398;2024-03-02T12:17:04;10.40;99.90
2579;DHT22;1299;48.282;14.398;2024-03-02T12:19:32;10.00;99.90
2579;DHT22;1299;48.282;14.398;2024-03-02T12:21:59;10.10;99.90
2579;DHT22;1299;48.282;14.398;2024-03-02T12:24:28;10.50;99.90
2579;DHT22;1299;48.282;14.398;2024-03-02T12:26:55;10.70;99.90
2579;DHT22;1299;48.282;14.398;2024-03-02T12:29:23;10.80;99.90
2579;DHT22;1299;48.282;14.398;2024-03-02T12:31:52;10.90;99.90
2579;DHT22;1299;48.282;14.398;2024-03-02T12:34:21;11.00;99.90
2579;DHT22;1299;48.282;14.398;2024-03-02T12:36:48;11.00;99.90
2579;DHT22;1299;48.282;14.398;2024-03-02T12:39:19;11.10;99.90
2579;DHT22;1299;48.282;14.398;2024-03-02T12:41:46;10.60;99.90
2579;DHT22;1299;48.282;14.398;2024-03-02T12:44:16;10.80;99.90
2579;DHT22;1299;48.282;14.398;2024-03-02T12:46:43;10.80;99.90
2579;DHT22;1299;48.282;14.398;2024-03-02T12:49:13;10.80;99.90
2579;DHT22;1299;48.282;14.398;2024-03-02T12:51:42;10.70;99.90
2579;DHT22;1299;48.282;14.398;2024-03-02T12:54:10;10.90;99.90
2579;DHT22;1299;48.282;14.398;2024-03-02T12:56:38;10.80;99.90
2579;DHT22;1299;48.282;14.398;2024-03-02T12:59:05;11.00;99.90
2579;DHT22;1299;48.282;14.398;2024-03-02T13:01:32;11.40;99.90
2579;DHT22;1299;48.282;14.398;2024-03-02T13:03:59;11.20;99.90
2579;DHT22;1299;48.282;14.398;2024-03-02T13:06:27;11.30;99.90
2579;DHT22;1299;48.282;14.398;2024-03-02T13:08:55;10.90;99.90
2579;DHT22;1299;48.282;14.398;2024-03-02T13:11:23;10.90;99.90
2579;DHT22;1299;48.282;14.398;2024-03-02T13:13:51;11.00;99.90
2579;DHT22;1299;48.282;14.398;2024-03-02T13:16:18;10.90;99.90
2579;DHT22;1299;48.282;14.398;2024-03-02T13:18:46;11.00;99.90
2579;DHT22;1299;48.282;14.398;2024-03-02T13:21:13;11.20;99.90
2579;DHT22;1299;48.282;14.398;2024-03-02T13:23:42;11.00;99.90
2579;DHT22;1299;48.282;14.398;2024-03-02T13:26:09;11.30;99.90
2579;DHT22;1299;48.282;14.398;2024-03-02T13:28:38;11.50;99.90
2579;DHT22;1299;48.282;14.398;2024-03-02T13:31:05;11.50;99.90
2579;DHT22;1299;48.282;14.398;2024-03-02T13:33:33;11.40;99.90
2579;DHT22;1299;48.282;14.398;2024-03-02T13:36:00;11.20;99.90
2579;DHT22;1299;48.282;14.398;2024-03-02T13:38:28;11.60;99.90
2579;DHT22;1299;48.282;14.398;2024-03-02T13:40:57;12.20;99.90
2579;DHT22;1299;48.282;14.398;2024-03-02T13:43:25;12.50;99.90
2579;DHT22;1299;48.282;14.398;2024-03-02T13:45:53;12.80;99.90
2579;DHT22;1299;48.282;14.398;2024-03-02T13:48:20;12.50;99.90
2579;DHT22;1299;48.282;14.398;2024-03-02T13:50:47;11.90;99.90
2579;DHT22;1299;48.282;14.398;2024-03-02T13:53:14;11.60;99.90
2579;DHT22;1299;48.282;14.398;2024-03-02T13:55:41;11.60;99.90
2579;DHT22;1299;48.282;14.398;2024-03-02T13:58:10;11.40;99.90
2579;DHT22;1299;48.282;14.398;2024-03-02T14:00:38;11.50;99.90
2579;DHT22;1299;48.282;14.398;2024-03-02T14:03:06;11.20;99.90
2579;DHT22;1299;48.282;14.398;2024-03-02T14:05:33;11.80;99.90
2579;DHT22;1299;48.282;14.398;2024-03-02T14:08:00;11.60;99.90
2579;DHT22;1299;48.282;14.398;2024-03-02T14:10:27;11.50;99.90
2579;DHT22;1299;48.282;14.398;2024-03-02T14:12:54;11.40;99.90
2579;DHT22;1299;48.282;14.398;2024-03-02T14:15:23;11.60;99.90
2579;DHT22;1299;48.282;14.398;2024-03-02T14:17:50;11.70;99.90
2579;DHT22;1299;48.282;14.398;2024-03-02T14:20:18;11.90;99.90
2579;DHT22;1299;48.282;14.398;2024-03-02T14:22:48;11.80;99.90
2579;DHT22;1299;48.282;14.398;2024-03-02T14:25:15;12.00;99.90
2579;DHT22;1299;48.282;14.398;2024-03-02T14:27:43;12.00;99.90
2579;DHT22;1299;48.282;14.398;2024-03-02T14:30:12;12.00;99.90
2579;DHT22;1299;48.282;14.398;2024-03-02T14:32:40;11.90;99.90
2579;DHT22;1299;48.282;14.398;2024-03-02T14:35:08;11.90;99.90
2579;DHT22;1299;48.282;14.398;2024-03-02T14:37:37;12.00;99.90
2579;DHT22;1299;48.282;14.398;2024-03-02T14:40:05;11.90;99.90
2579;DHT22;1299;48.282;14.398;2024-03-02T14:42:35;12.10;99.90
2579;DHT22;1299;48.282;14.398;2024-03-02T14:45:02;12.20;99.90
2579;DHT22;1299;48.282;14.398;2024-03-02T14:47:31;12.10;99.90
2579;DHT22;1299;48.282;14.398;2024-03-02T14:50:00;12.20;99.90
2579;DHT22;1299;48.282;14.398;2024-03-02T14:52:29;12.20;99.90
2579;DHT22;1299;48.282;14.398;2024-03-02T14:54:56;12.10;99.90
2579;DHT22;1299;48.282;14.398;2024-03-02T14:57:23;12.40;99.90
2579;DHT22;1299;48.282;14.398;2024-03-02T14:59:50;12.20;99.90
2579;DHT22;1299;48.282;14.398;2024-03-02T15:02:17;12.30;99.90
2579;DHT22;1299;48.282;14.398;2024-03-02T15:04:47;12.70;99.90
2579;DHT22;1299;48.282;14.398;2024-03-02T15:07:15;12.60;99.90
2579;DHT22;1299;48.282;14.398;2024-03-02T15:09:42;12.30;99.90
2579;DHT22;1299;48.282;14.398;2024-03-02T15:12:10;12.10;99.90
2579;DHT22;1299;48.282;14.398;2024-03-02T15:14:40;12.00;99.90
2579;DHT22;1299;48.282;14.398;2024-03-02T15:17:12;12.10;99.90
2579;DHT22;1299;48.282;14.398;2024-03-02T15:19:41;12.30;99.90
2579;DHT22;1299;48.282;14.398;2024-03-02T15:22:09;12.20;99.90
2579;DHT22;1299;48.282;14.398;2024-03-02T15:24:37;12.10;99.90
2579;DHT22;1299;48.282;14.398;2024-03-02T15:27:05;12.00;99.90
2579;DHT22;1299;48.282;14.398;2024-03-02T15:29:34;12.10;99.90
2579;DHT22;1299;48.282;14.398;2024-03-02T15:32:01;12.10;99.90
2579;DHT22;1299;48.282;14.398;2024-03-02T15:34:30;12.10;99.90
2579;DHT22;1299;48.282;14.398;2024-03-02T15:36:58;12.00;99.90
2579;DHT22;1299;48.282;14.398;2024-03-02T15:39:25;12.00;99.90
2579;DHT22;1299;48.282;14.398;2024-03-02T15:41:53;12.10;99.90
2579;DHT22;1299;48.282;14.398;2024-03-02T15:44:20;12.10;99.90
2579;DHT22;1299;48.282;14.398;2024-03-02T15:46:48;12.10;99.90
2579;DHT22;1299;48.282;14.398;2024-03-02T15:49:15;12.00;99.90
2579;DHT22;1299;48.282;14.398;2024-03-02T15:51:43;12.40;99.90
2579;DHT22;1299;48.282;14.398;2024-03-02T15:54:10;12.50;99.90
2579;DHT22;1299;48.282;14.398;2024-03-02T15:56:37;12.70;99.90
2579;DHT22;1299;48.282;14.398;2024-03-02T15:59:05;12.70;99.90
2579;DHT22;1299;48.282;14.398;2024-03-02T16:01:32;12.80;99.90
2579;DHT22;1299;48.282;14.398;2024-03-02T16:03:59;13.00;99.90
2579;DHT22;1299;48.282;14.398;2024-03-02T16:06:26;12.70;99.90